Wetter & Webcam

Wetterdaten Diepholz (ETND)

METAR
Data not available. Military Control Zone (MCTR) is not permanently active (HX).

Sunrise (SR) / Sunset (SS)
05:10 / 17:29 UTC

Wetterdaten Bremen (EDDW)

METAR
METAR text: EDDW 211720Z 08006KT CAVOK 18/08 Q1017 NOSIG Conditions at: EDDW (BREMEN , DE) observed 1720 UTC 21 September 2019 Temperature: 18.0°C (64°F) Dewpoint: 8.0°C (46°F) [RH = 52%] Pressure (altimeter): 30.03 inches Hg (1017.0 mb) Winds: from the E (80 degrees) at 7 MPH (6 knots; 3.1 m/s) Visibility: 6 or more miles (10+ km) Ceiling: ceiling and visibility are OK Clouds: unknown Weather: no significant weather observed at this time Forecast for: EDDW (BREMEN , DE) Text: EDDW 211700Z 2118/2218 12007KT CAVOK Forecast period: 1800 UTC 21 September 2019 to 1800 UTC 22 September 2019 Forecast type: FROM: standard forecast or significant change Winds: from the ESE (120 degrees) at 8 MPH (7 knots; 3.6 m/s) Visibility: 6 or more miles 10+ km) Ceiling: unknown Clouds: missing Weather: NSW  (no significant weather)

Copyright © 2017 Flugplatz Diepholz-Dümmerland

© 2017 Flugplatz Diepholz-Dümmerland